Time;durP1;ratioP1;P1;durP2;ratioP2;P2;SDS_P1;SDS_P2;PMS_P1;PMS_P2;Temp;Humidity;BMP_temperature;BMP_pressure;BME280_temperature;BME280_humidity;BME280_pressure;Samples;Min_cycle;Max_cycle;Signal;HPM_P1;HPM_P2
2022/09/25 00:00:36;;;;;;;42.60;23.23;;;;;;;;;;5095909;28;20493;-76
2022/09/25 00:03:03;;;;;;;46.07;24.57;;;;;;;;;;5095595;28;20410;-76
2022/09/25 00:05:29;;;;;;;34.23;22.73;;;;;;;;;;5094472;28;20784;-76
2022/09/25 00:07:55;;;;;;;26.93;21.50;;;;;;;;;;5094397;28;20931;-77
2022/09/25 00:10:24;;;;;;;27.17;21.00;;;;;;;;;;5095551;28;20413;-76
2022/09/25 00:12:50;;;;;;;20.70;18.03;;;;;;;;;;5095499;28;20876;-77
2022/09/25 00:15:16;;;;;;;14.13;12.73;;;;;;;;;;5095649;28;20401;-77
2022/09/25 00:17:42;;;;;;;17.07;14.40;;;;;;;;;;5095513;28;21027;-77
2022/09/25 00:20:09;;;;;;;16.37;14.47;;;;;;;;;;5094107;28;20420;-78
2022/09/25 00:22:35;;;;;;;22.77;14.50;;;;;;;;;;5095273;28;20410;-77
2022/09/25 00:25:02;;;;;;;13.67;12.47;;;;;;;;;;5095352;28;20455;-75
2022/09/25 00:27:28;;;;;;;12.63;11.63;;;;;;;;;;5093892;28;20429;-76
2022/09/25 00:29:54;;;;;;;12.47;11.37;;;;;;;;;;5095221;28;20409;-76
2022/09/25 00:32:20;;;;;;;12.73;11.43;;;;;;;;;;5095305;28;20449;-76
2022/09/25 00:34:46;;;;;;;12.37;11.20;;;;;;;;;;5095084;28;20461;-76
2022/09/25 00:37:12;;;;;;;16.77;10.70;;;;;;;;;;5093638;28;20994;-77
2022/09/25 00:39:38;;;;;;;12.52;11.30;;;;;;;;;;5094303;28;20401;-77
2022/09/25 00:42:04;;;;;;;12.20;11.20;;;;;;;;;;5093607;28;20174;-77
2022/09/25 00:44:50;;;;;;;16.20;11.10;;;;;;;;;;5095057;28;20412;-77
2022/09/25 00:47:18;;;;;;;12.17;10.97;;;;;;;;;;5094874;28;20398;-77
2022/09/25 00:49:44;;;;;;;13.07;11.77;;;;;;;;;;5093282;28;20566;-77
2022/09/25 00:52:14;;;;;;;12.57;11.30;;;;;;;;;;5094759;28;20405;-77
2022/09/25 00:54:44;;;;;;;11.90;10.90;;;;;;;;;;5093310;28;20469;-77
2022/09/25 00:57:12;;;;;;;11.87;10.17;;;;;;;;;;5094583;28;20466;-77
2022/09/25 00:59:40;;;;;;;10.50;9.50;;;;;;;;;;5094698;28;20417;-77
2022/09/25 01:02:08;;;;;;;10.20;9.17;;;;;;;;;;5093452;28;20432;-77
2022/09/25 01:04:39;;;;;;;10.90;10.00;;;;;;;;;;5094518;28;20414;-77
2022/09/25 01:07:05;;;;;;;10.07;9.30;;;;;;;;;;5094539;28;20412;-77
2022/09/25 01:09:31;;;;;;;9.23;8.50;;;;;;;;;;5094532;28;20421;-77
2022/09/25 01:11:57;;;;;;;10.13;9.43;;;;;;;;;;5094472;28;20416;-77
2022/09/25 01:14:25;;;;;;;9.70;8.90;;;;;;;;;;5093038;28;20436;-77
2022/09/25 01:16:57;;;;;;;10.10;9.33;;;;;;;;;;5094333;28;20559;-77
2022/09/25 01:19:42;;;;;;;11.17;9.93;;;;;;;;;;5092760;28;20459;-77
2022/09/25 01:22:26;;;;;;;9.00;8.40;;;;;;;;;;5094232;28;20413;-77
2022/09/25 01:24:58;;;;;;;9.03;8.20;;;;;;;;;;5093934;28;20817;-77
2022/09/25 01:27:29;;;;;;;8.37;7.70;;;;;;;;;;5094019;28;20409;-77
2022/09/25 01:29:55;;;;;;;8.00;7.20;;;;;;;;;;5094307;28;20462;-77
2022/09/25 01:32:27;;;;;;;10.80;8.10;;;;;;;;;;5094075;28;20812;-77
2022/09/25 01:34:53;;;;;;;10.30;8.13;;;;;;;;;;5094082;28;20454;-76
2022/09/25 01:37:28;;;;;;;8.70;7.83;;;;;;;;;;5093042;28;20552;-76
2022/09/25 01:40:13;;;;;;;9.03;8.13;;;;;;;;;;5093759;28;20962;-77
2022/09/25 01:42:42;;;;;;;8.50;7.70;;;;;;;;;;5093563;28;20480;-77
2022/09/25 01:45:11;;;;;;;9.60;8.80;;;;;;;;;;5093864;28;20441;-77
2022/09/25 01:47:37;;;;;;;8.43;7.80;;;;;;;;;;5093766;28;20436;-76
2022/09/25 01:50:09;;;;;;;16.13;9.07;;;;;;;;;;5092600;28;20505;-77
2022/09/25 01:52:38;;;;;;;8.67;7.97;;;;;;;;;;5092377;28;20424;-76
2022/09/25 01:55:11;;;;;;;9.80;9.00;;;;;;;;;;5093694;28;20517;-77
2022/09/25 01:57:40;;;;;;;8.20;7.50;;;;;;;;;;5093789;28;20469;-77
2022/09/25 02:00:15;;;;;;;8.67;8.13;;;;;;;;;;5092823;28;20791;-77
2022/09/25 02:03:01;;;;;;;9.97;8.93;;;;;;;;;;5093945;28;20412;-77
2022/09/25 02:05:33;;;;;;;9.20;8.40;;;;;;;;;;5093976;28;20449;-77
2022/09/25 02:08:07;;;;;;;10.33;9.33;;;;;;;;;;5093973;28;20418;-76
2022/09/25 02:10:35;;;;;;;10.00;9.00;;;;;;;;;;5093865;28;20431;-77
2022/09/25 02:13:05;;;;;;;17.37;9.43;;;;;;;;;;5093601;28;20874;-77
2022/09/25 02:15:33;;;;;;;13.40;12.00;;;;;;;;;;5093626;28;20401;-77
2022/09/25 02:20:49;;;;;;;13.00;11.67;;;;;;;;;;5093497;28;20475;-77
2022/09/25 02:23:20;;;;;;;11.43;10.37;;;;;;;;;;5093356;28;20440;-77
2022/09/25 02:25:59;;;;;;;11.87;10.87;;;;;;;;;;5093247;28;20413;-77
2022/09/25 02:28:25;;;;;;;12.80;11.60;;;;;;;;;;5093340;28;20479;-76
2022/09/25 02:30:52;;;;;;;17.87;11.20;;;;;;;;;;5093369;28;20394;-77
2022/09/25 02:33:18;;;;;;;12.90;10.83;;;;;;;;;;5093446;28;20405;-77
2022/09/25 02:35:44;;;;;;;14.53;12.03;;;;;;;;;;5093276;28;20492;-77
2022/09/25 02:38:10;;;;;;;12.40;11.13;;;;;;;;;;5093095;28;20896;-77
2022/09/25 02:40:57;;;;;;;14.90;12.10;;;;;;;;;;5092902;28;20493;-77
2022/09/25 02:43:29;;;;;;;14.63;12.20;;;;;;;;;;5092976;28;20412;-77
2022/09/25 02:46:18;;;;;;;14.27;12.70;;;;;;;;;;5091678;28;20424;-77
2022/09/25 02:48:49;;;;;;;20.47;14.00;;;;;;;;;;5093351;28;20888;-77
2022/09/25 02:51:34;;;;;;;15.20;13.60;;;;;;;;;;5093068;28;20401;-77
2022/09/25 02:54:19;;;;;;;13.03;11.93;;;;;;;;;;5092989;28;20408;-76
2022/09/25 02:56:52;;;;;;;15.10;11.23;;;;;;;;;;5091681;28;20460;-77
2022/09/25 02:59:19;;;;;;;16.17;10.23;;;;;;;;;;5091762;28;20413;-77
2022/09/25 03:01:46;;;;;;;9.80;9.00;;;;;;;;;;5093201;28;20390;-77
2022/09/25 03:04:12;;;;;;;11.00;10.00;;;;;;;;;;5093159;28;20405;-77
2022/09/25 03:06:39;;;;;;;11.43;9.17;;;;;;;;;;5092869;28;20413;-77
2022/09/25 03:09:06;;;;;;;8.67;8.00;;;;;;;;;;5092837;28;20416;-77
2022/09/25 03:11:42;;;;;;;8.43;7.83;;;;;;;;;;5095951;28;20401;-77
2022/09/25 03:14:08;;;;;;;9.07;8.50;;;;;;;;;;5096876;28;20397;-77
2022/09/25 03:16:34;;;;;;;8.13;7.53;;;;;;;;;;5096451;28;20461;-77
2022/09/25 03:19:01;;;;;;;8.90;7.93;;;;;;;;;;5096710;28;20404;-77
2022/09/25 03:21:27;;;;;;;8.90;8.30;;;;;;;;;;5096389;28;20462;-77
2022/09/25 03:23:55;;;;;;;9.00;8.20;;;;;;;;;;5095118;28;20413;-77
2022/09/25 03:26:21;;;;;;;10.50;9.50;;;;;;;;;;5096460;28;20441;-77
2022/09/25 03:28:47;;;;;;;13.63;12.33;;;;;;;;;;5096562;28;20773;-77
2022/09/25 03:31:13;;;;;;;26.00;16.40;;;;;;;;;;5096282;28;20416;-77
2022/09/25 03:33:41;;;;;;;34.03;20.30;;;;;;;;;;5096201;28;20504;-77
2022/09/25 03:36:11;;;;;;;40.10;24.27;;;;;;;;;;5094975;28;20421;-77
2022/09/25 03:38:38;;;;;;;39.40;24.37;;;;;;;;;;5094900;28;20831;-77
2022/09/25 03:41:07;;;;;;;40.63;23.17;;;;;;;;;;5096083;28;20485;-77
2022/09/25 03:43:34;;;;;;;46.80;27.07;;;;;;;;;;5095869;28;20408;-77
2022/09/25 03:46:00;;;;;;;51.60;28.27;;;;;;;;;;5094607;28;20421;-77
2022/09/25 03:48:26;;;;;;;56.90;30.00;;;;;;;;;;5095915;28;20416;-76
2022/09/25 03:50:55;;;;;;;69.93;30.03;;;;;;;;;;5096059;28;20783;-77
2022/09/25 03:53:21;;;;;;;85.93;33.07;;;;;;;;;;5095912;28;20522;-77
2022/09/25 03:55:47;;;;;;;91.50;31.30;;;;;;;;;;5094394;28;20481;-77
2022/09/25 03:58:13;;;;;;;157.27;35.20;;;;;;;;;;5095763;28;20525;-77
2022/09/25 04:00:40;;;;;;;108.07;36.10;;;;;;;;;;5095899;28;20459;-77
2022/09/25 04:03:06;;;;;;;95.90;33.57;;;;;;;;;;5095744;28;20406;-76
2022/09/25 04:05:32;;;;;;;95.67;33.50;;;;;;;;;;5094445;28;20417;-77
2022/09/25 04:08:00;;;;;;;99.30;31.80;;;;;;;;;;5095688;28;20401;-77
2022/09/25 04:10:26;;;;;;;84.87;33.17;;;;;;;;;;5094267;28;20788;-77
2022/09/25 04:12:53;;;;;;;71.20;31.37;;;;;;;;;;5095155;28;20408;-77
2022/09/25 04:15:22;;;;;;;74.47;29.90;;;;;;;;;;5095195;28;20413;-77
2022/09/25 04:17:48;;;;;;;64.07;29.90;;;;;;;;;;5095329;28;20476;-77
2022/09/25 04:20:14;;;;;;;63.70;31.07;;;;;;;;;;5095742;28;20401;-77
2022/09/25 04:22:40;;;;;;;72.33;32.40;;;;;;;;;;5094820;28;20900;-77
2022/09/25 04:25:06;;;;;;;66.60;31.90;;;;;;;;;;5095258;28;20413;-77
2022/09/25 04:27:32;;;;;;;70.97;34.03;;;;;;;;;;5095205;28;20413;-77
2022/09/25 04:30:00;;;;;;;51.37;28.93;;;;;;;;;;5093959;28;20424;-77
2022/09/25 04:35:12;;;;;;;56.37;28.90;;;;;;;;;;5073482;28;20440;-77
2022/09/25 04:37:38;;;;;;;66.77;31.20;;;;;;;;;;5095092;28;20960;-77
2022/09/25 04:40:05;;;;;;;63.40;30.60;;;;;;;;;;5094954;28;20416;-77
2022/09/25 04:42:31;;;;;;;61.60;31.17;;;;;;;;;;5093598;28;20482;-77
2022/09/25 04:44:57;;;;;;;56.60;29.80;;;;;;;;;;5093791;28;20425;-77
2022/09/25 04:47:24;;;;;;;59.40;31.63;;;;;;;;;;5094866;28;20399;-77
2022/09/25 04:49:51;;;;;;;56.00;28.10;;;;;;;;;;5094454;28;20390;-77
2022/09/25 04:52:18;;;;;;;57.50;29.67;;;;;;;;;;5094785;28;20409;-77
2022/09/25 04:54:44;;;;;;;67.57;31.60;;;;;;;;;;5094708;28;20467;-76
2022/09/25 04:57:14;;;;;;;79.30;32.67;;;;;;;;;;5093296;28;20465;-77
2022/09/25 04:59:40;;;;;;;81.73;34.20;;;;;;;;;;5094650;28;20409;-76
2022/09/25 05:02:06;;;;;;;79.17;35.37;;;;;;;;;;5094463;28;20412;-77
2022/09/25 05:04:32;;;;;;;69.90;33.20;;;;;;;;;;5094556;28;20397;-77
2022/09/25 05:06:58;;;;;;;53.00;28.37;;;;;;;;;;5094681;28;20486;-77
2022/09/25 05:09:24;;;;;;;68.13;30.67;;;;;;;;;;5094505;28;20769;-77
2022/09/25 05:11:50;;;;;;;64.70;31.90;;;;;;;;;;5094473;28;20405;-77
2022/09/25 05:14:16;;;;;;;53.00;28.27;;;;;;;;;;5094325;28;20440;-77
2022/09/25 05:16:42;;;;;;;66.70;30.80;;;;;;;;;;5094242;28;21035;-77
2022/09/25 05:19:08;;;;;;;71.70;31.70;;;;;;;;;;5094262;28;20438;-77
2022/09/25 05:21:34;;;;;;;49.07;28.63;;;;;;;;;;5094213;28;20413;-77
2022/09/25 05:24:01;;;;;;;60.00;31.63;;;;;;;;;;5094027;28;20405;-77
2022/09/25 05:26:28;;;;;;;36.20;24.53;;;;;;;;;;5094199;28;20409;-77
2022/09/25 05:28:54;;;;;;;72.00;30.23;;;;;;;;;;5094049;28;20470;-77
2022/09/25 05:31:20;;;;;;;53.07;24.20;;;;;;;;;;5094095;28;20805;-77
2022/09/25 05:33:47;;;;;;;65.17;30.60;;;;;;;;;;5091945;28;20414;-77
2022/09/25 05:36:13;;;;;;;52.47;27.17;;;;;;;;;;5092554;28;20421;-77
2022/09/25 05:38:39;;;;;;;73.37;32.20;;;;;;;;;;5092614;28;20429;-77
2022/09/25 05:41:09;;;;;;;78.27;33.20;;;;;;;;;;5094154;28;20413;-77
2022/09/25 05:43:39;;;;;;;86.50;34.17;;;;;;;;;;5093926;28;20421;-77
2022/09/25 05:46:05;;;;;;;77.50;33.60;;;;;;;;;;5092372;28;20409;-77
2022/09/25 05:48:31;;;;;;;97.03;37.73;;;;;;;;;;5093804;28;20420;-77
2022/09/25 05:50:58;;;;;;;118.70;40.50;;;;;;;;;;5093847;28;20397;-77
2022/09/25 05:53:24;;;;;;;110.03;40.27;;;;;;;;;;5093873;28;20418;-77
2022/09/25 05:55:56;;;;;;;100.83;36.93;;;;;;;;;;5093267;28;20979;-77
2022/09/25 05:58:23;;;;;;;96.20;38.87;;;;;;;;;;5093610;28;20432;-77
2022/09/25 06:00:49;;;;;;;88.97;36.10;;;;;;;;;;5093509;28;20401;-76
2022/09/25 06:03:15;;;;;;;87.97;38.03;;;;;;;;;;5093611;28;20397;-77
2022/09/25 06:05:41;;;;;;;69.30;32.40;;;;;;;;;;5093545;28;20808;-77
2022/09/25 06:08:07;;;;;;;78.83;34.70;;;;;;;;;;5093455;28;20404;-76
2022/09/25 06:10:33;;;;;;;82.90;36.90;;;;;;;;;;5093432;28;20979;-77
2022/09/25 06:13:00;;;;;;;75.37;39.63;;;;;;;;;;5093582;28;20455;-77
2022/09/25 06:15:36;;;;;;;81.70;33.10;;;;;;;;;;5093221;28;20401;-77
2022/09/25 06:18:03;;;;;;;84.70;34.87;;;;;;;;;;5091966;28;20476;-76
2022/09/25 06:20:29;;;;;;;74.33;33.60;;;;;;;;;;5093473;28;20398;-77
2022/09/25 06:22:55;;;;;;;81.83;36.00;;;;;;;;;;5093364;28;20409;-77
2022/09/25 06:25:22;;;;;;;75.97;34.80;;;;;;;;;;5091978;28;20459;-77
2022/09/25 06:27:51;;;;;;;68.60;32.90;;;;;;;;;;5093306;28;20793;-77
2022/09/25 06:30:17;;;;;;;76.73;33.50;;;;;;;;;;5093474;28;20420;-77
2022/09/25 06:32:43;;;;;;;56.50;31.77;;;;;;;;;;5093250;28;20488;-77
2022/09/25 06:35:09;;;;;;;62.37;31.67;;;;;;;;;;5093263;28;20506;-77
2022/09/25 06:37:35;;;;;;;56.00;30.57;;;;;;;;;;5093160;28;20513;-77
2022/09/25 06:40:01;;;;;;;54.50;29.87;;;;;;;;;;5092488;28;20429;-77
2022/09/25 06:42:27;;;;;;;69.37;34.23;;;;;;;;;;5093885;28;20413;-77
2022/09/25 06:44:53;;;;;;;62.27;32.73;;;;;;;;;;5094643;28;20444;-77
2022/09/25 06:47:20;;;;;;;71.30;34.83;;;;;;;;;;5098366;28;20405;-76
2022/09/25 06:49:46;;;;;;;64.87;31.47;;;;;;;;;;5098106;28;20405;-77
2022/09/25 06:52:12;;;;;;;57.47;31.53;;;;;;;;;;5098249;28;20930;-76
2022/09/25 06:54:38;;;;;;;56.17;30.17;;;;;;;;;;5097968;28;20464;-77
2022/09/25 06:57:04;;;;;;;64.87;32.13;;;;;;;;;;5097847;28;20462;-76
2022/09/25 06:59:30;;;;;;;60.27;31.90;;;;;;;;;;5097691;28;20811;-75
2022/09/25 07:03:43;;;;;;;67.43;33.97;;;;;;;;;;5097692;28;20412;-75
2022/09/25 07:04:42;;;;;;;61.63;32.37;;;;;;;;;;5096894;28;20417;-75
2022/09/25 07:07:08;;;;;;;67.07;31.90;;;;;;;;;;5096867;28;20412;-79
2022/09/25 07:09:34;;;;;;;66.63;33.70;;;;;;;;;;5096714;28;20431;-76
2022/09/25 07:12:00;;;;;;;89.77;37.17;;;;;;;;;;5096683;28;20416;-77
2022/09/25 07:14:26;;;;;;;73.40;35.13;;;;;;;;;;5096766;28;20417;-76
2022/09/25 07:16:52;;;;;;;62.40;31.80;;;;;;;;;;5096637;28;20512;-75
2022/09/25 07:19:18;;;;;;;61.20;31.30;;;;;;;;;;5096577;28;20397;-77
2022/09/25 07:21:44;;;;;;;65.73;33.63;;;;;;;;;;5096522;28;20413;-78
2022/09/25 07:24:09;;;;;;;81.00;44.57;;;;;;;;;;5096593;28;20401;-76
2022/09/25 07:26:35;;;;;;;63.70;36.33;;;;;;;;;;5096419;28;20393;-76
2022/09/25 07:29:03;;;;;;;49.23;27.00;;;;;;;;;;5096674;28;20437;-74
2022/09/25 07:31:30;;;;;;;51.87;28.90;;;;;;;;;;5096184;28;20754;-75
2022/09/25 07:34:07;;;;;;;62.23;31.00;;;;;;;;;;5096349;28;20413;-75
2022/09/25 07:36:34;;;;;;;53.53;29.50;;;;;;;;;;5095337;28;20945;-76
2022/09/25 07:39:00;;;;;;;105.73;72.90;;;;;;;;;;5096257;28;20450;-75
2022/09/25 07:41:26;;;;;;;68.00;44.33;;;;;;;;;;5096319;28;20401;-76
2022/09/25 07:43:56;;;;;;;56.70;31.40;;;;;;;;;;5096271;28;20420;-75
2022/09/25 07:46:25;;;;;;;62.53;31.17;;;;;;;;;;5096261;28;20401;-75
2022/09/25 07:48:51;;;;;;;66.23;31.30;;;;;;;;;;5096139;28;20402;-76
2022/09/25 07:51:17;;;;;;;59.67;30.50;;;;;;;;;;5094877;28;20414;-73
2022/09/25 07:53:44;;;;;;;62.67;31.03;;;;;;;;;;5094718;28;20455;-77
2022/09/25 07:56:11;;;;;;;66.20;31.10;;;;;;;;;;5095600;28;20479;-73
2022/09/25 07:58:37;;;;;;;67.83;31.07;;;;;;;;;;5095757;28;20417;-80
2022/09/25 08:01:04;;;;;;;60.13;29.40;;;;;;;;;;5096609;28;20405;-79
2022/09/25 08:03:30;;;;;;;59.87;29.80;;;;;;;;;;5096072;28;20445;-77
2022/09/25 08:06:00;;;;;;;52.83;28.40;;;;;;;;;;5096235;28;20401;-78
2022/09/25 08:08:27;;;;;;;49.47;26.43;;;;;;;;;;5096573;28;20413;-80
2022/09/25 08:10:54;;;;;;;46.07;25.97;;;;;;;;;;5095078;28;20413;-77
2022/09/25 08:13:21;;;;;;;42.73;24.70;;;;;;;;;;5096083;28;20425;-76
2022/09/25 08:15:47;;;;;;;38.67;22.77;;;;;;;;;;5095229;28;20425;-75
2022/09/25 08:18:13;;;;;;;50.47;26.03;;;;;;;;;;5095774;28;21019;-77
2022/09/25 08:20:39;;;;;;;45.47;24.40;;;;;;;;;;5096856;28;20488;-77
2022/09/25 08:23:07;;;;;;;60.67;28.57;;;;;;;;;;5096134;28;20438;-75
2022/09/25 08:25:33;;;;;;;53.47;28.20;;;;;;;;;;5095261;28;20516;-82
2022/09/25 08:27:59;;;;;;;57.40;32.53;;;;;;;;;;5096374;28;20440;-77
2022/09/25 08:30:25;;;;;;;46.17;25.77;;;;;;;;;;5095461;28;20509;-77
2022/09/25 08:32:51;;;;;;;44.70;25.07;;;;;;;;;;5095604;28;20417;-75
2022/09/25 08:35:17;;;;;;;47.43;24.40;;;;;;;;;;5096356;28;20497;-79
2022/09/25 08:37:47;;;;;;;40.43;23.37;;;;;;;;;;5095616;28;20515;-76
2022/09/25 08:40:17;;;;;;;29.93;19.97;;;;;;;;;;5095337;28;20406;-76
2022/09/25 08:42:44;;;;;;;26.00;19.33;;;;;;;;;;5095459;28;20409;-75
2022/09/25 08:50:50;;;;;;;30.63;19.97;;;;;;;;;;5095298;28;20440;-77
2022/09/25 08:53:21;;;;;;;26.13;19.93;;;;;;;;;;5095008;28;20443;-74
2022/09/25 08:58:41;;;;;;;28.40;19.10;;;;;;;;;;5096305;28;20464;-75
2022/09/25 09:01:08;;;;;;;26.63;18.27;;;;;;;;;;5094401;28;20966;-78
2022/09/25 09:03:38;;;;;;;24.30;16.87;;;;;;;;;;5093789;28;20479;-81
2022/09/25 09:06:06;;;;;;;26.40;17.73;;;;;;;;;;5094712;28;20407;-79
2022/09/25 09:08:35;;;;;;;25.93;16.23;;;;;;;;;;5094522;28;20906;-78
2022/09/25 09:11:05;;;;;;;18.30;14.80;;;;;;;;;;5094510;28;20429;-78
2022/09/25 09:13:47;;;;;;;23.00;14.03;;;;;;;;;;5094601;28;20408;-77
2022/09/25 09:16:25;;;;;;;19.33;14.10;;;;;;;;;;5094467;28;20748;-77
2022/09/25 09:18:53;;;;;;;19.80;14.87;;;;;;;;;;5094826;28;20447;-74
2022/09/25 09:21:25;;;;;;;14.23;12.73;;;;;;;;;;5094845;28;20405;-75
2022/09/25 09:23:59;;;;;;;16.77;13.53;;;;;;;;;;5094597;28;20460;-76
2022/09/25 09:26:31;;;;;;;16.97;13.13;;;;;;;;;;5094270;28;20780;-75
2022/09/25 09:29:03;;;;;;;19.43;14.17;;;;;;;;;;5094293;28;20512;-75
2022/09/25 09:31:48;;;;;;;12.40;11.00;;;;;;;;;;5094223;28;20935;-76
2022/09/25 09:34:29;;;;;;;13.90;11.87;;;;;;;;;;5094184;28;20419;-77
2022/09/25 09:36:55;;;;;;;14.43;11.60;;;;;;;;;;5093973;28;20528;-77
2022/09/25 09:39:39;;;;;;;14.37;11.10;;;;;;;;;;5094074;28;20413;-77
2022/09/25 09:42:21;;;;;;;15.13;10.97;;;;;;;;;;5094043;28;20409;-76
2022/09/25 09:45:08;;;;;;;12.33;10.03;;;;;;;;;;5094249;28;20787;-77
2022/09/25 09:47:38;;;;;;;11.60;10.40;;;;;;;;;;5052446;28;20428;-74
2022/09/25 09:50:24;;;;;;;26.70;21.70;;;;;;;;;;5092620;28;20833;-76
2022/09/25 09:52:52;;;;;;;9.10;8.27;;;;;;;;;;5093822;28;20816;-80
2022/09/25 09:55:40;;;;;;;9.50;7.73;;;;;;;;;;5092279;28;20469;-74
2022/09/25 09:58:11;;;;;;;9.17;8.37;;;;;;;;;;5092404;28;20462;-76
2022/09/25 10:00:38;;;;;;;9.27;8.47;;;;;;;;;;5093896;28;20402;-79
2022/09/25 10:03:17;;;;;;;8.23;7.43;;;;;;;;;;5093772;28;20435;-73
2022/09/25 10:05:47;;;;;;;8.87;7.57;;;;;;;;;;5094368;28;20497;-75
2022/09/25 10:08:13;;;;;;;11.47;7.93;;;;;;;;;;5094149;28;20441;-75
2022/09/25 10:10:47;;;;;;;10.13;7.80;;;;;;;;;;5094113;28;20442;-75
2022/09/25 10:13:16;;;;;;;7.50;6.90;;;;;;;;;;5092736;28;20431;-74
2022/09/25 10:15:46;;;;;;;7.07;6.37;;;;;;;;;;5093770;28;20491;-75
2022/09/25 10:18:13;;;;;;;7.40;6.80;;;;;;;;;;5093694;28;20472;-74
2022/09/25 10:20:49;;;;;;;7.17;6.67;;;;;;;;;;5093010;28;20425;-77
2022/09/25 10:23:30;;;;;;;7.17;6.57;;;;;;;;;;5093589;28;20437;-73
2022/09/25 10:25:56;;;;;;;6.97;6.33;;;;;;;;;;5093403;28;20419;-72
2022/09/25 10:28:26;;;;;;;8.57;7.70;;;;;;;;;;5093357;28;20509;-76
2022/09/25 10:30:52;;;;;;;8.07;7.27;;;;;;;;;;5092428;28;20800;-74
2022/09/25 10:33:22;;;;;;;7.53;6.80;;;;;;;;;;5092150;28;20411;-74
2022/09/25 10:35:49;;;;;;;8.20;6.80;;;;;;;;;;5093450;28;20446;-74
2022/09/25 10:38:28;;;;;;;7.47;6.80;;;;;;;;;;5093429;28;20466;-82
2022/09/25 10:41:02;;;;;;;7.50;6.73;;;;;;;;;;5092057;28;20436;-80
2022/09/25 10:43:28;;;;;;;6.47;6.07;;;;;;;;;;5093404;28;20765;-79
2022/09/25 10:46:04;;;;;;;6.83;6.20;;;;;;;;;;5092165;28;20912;-83
2022/09/25 10:51:17;;;;;;;5.63;5.23;;;;;;;;;;5093806;28;20935;-80
2022/09/25 10:53:43;;;;;;;4.47;4.10;;;;;;;;;;5093304;28;20464;-79
2022/09/25 10:56:11;;;;;;;5.03;4.37;;;;;;;;;;5093146;28;20458;-83
2022/09/25 10:58:46;;;;;;;7.70;5.63;;;;;;;;;;5094477;28;20410;-83
2022/09/25 11:01:13;;;;;;;6.40;5.20;;;;;;;;;;5093214;28;20412;-82
2022/09/25 11:03:45;;;;;;;5.57;5.10;;;;;;;;;;5092259;28;20419;-84
2022/09/25 11:06:17;;;;;;;6.20;5.07;;;;;;;;;;5093172;28;20442;-84
2022/09/25 11:08:45;;;;;;;5.70;5.40;;;;;;;;;;5093174;28;20769;-85
2022/09/25 11:11:12;;;;;;;6.90;6.30;;;;;;;;;;5093652;28;20426;-85
2022/09/25 11:13:38;;;;;;;6.80;6.07;;;;;;;;;;5093303;28;20409;-84
2022/09/25 11:16:09;;;;;;;6.03;5.50;;;;;;;;;;5093023;28;20418;-78
2022/09/25 11:18:51;;;;;;;5.87;5.40;;;;;;;;;;5093225;28;20419;-76
2022/09/25 11:21:23;;;;;;;6.73;6.13;;;;;;;;;;5092930;28;20396;-76
2022/09/25 11:23:59;;;;;;;8.70;6.53;;;;;;;;;;5092848;28;20498;-80
2022/09/25 11:26:30;;;;;;;6.50;5.90;;;;;;;;;;5092879;28;20932;-77
2022/09/25 11:29:04;;;;;;;6.70;6.10;;;;;;;;;;5092928;28;20399;-79
2022/09/25 11:31:29;;;;;;;6.57;6.07;;;;;;;;;;5093078;28;20392;-77
2022/09/25 11:34:02;;;;;;;6.10;5.50;;;;;;;;;;5096304;28;20402;-80
2022/09/25 11:36:31;;;;;;;6.77;6.37;;;;;;;;;;5096383;28;20761;-77
2022/09/25 11:41:54;;;;;;;6.63;5.60;;;;;;;;;;5096635;28;20396;-80
2022/09/25 11:44:26;;;;;;;6.53;6.03;;;;;;;;;;5096654;28;20730;-81
2022/09/25 11:46:55;;;;;;;9.33;6.33;;;;;;;;;;5094897;28;20426;-82
2022/09/25 11:49:30;;;;;;;6.10;5.60;;;;;;;;;;5096208;28;20410;-80
2022/09/25 11:52:15;;;;;;;7.30;6.60;;;;;;;;;;5096136;28;20501;-81
2022/09/25 11:54:49;;;;;;;6.53;6.03;;;;;;;;;;5095990;28;20469;-80
2022/09/25 11:57:21;;;;;;;6.47;6.03;;;;;;;;;;5095982;28;20564;-85
2022/09/25 11:59:57;;;;;;;6.27;5.70;;;;;;;;;;5096034;28;20434;-86
2022/09/25 12:02:34;;;;;;;17.23;12.90;;;;;;;;;;5096295;28;20772;-85
2022/09/25 12:05:09;;;;;;;9.23;8.33;;;;;;;;;;5094616;28;20426;-84
2022/09/25 12:07:54;;;;;;;6.77;6.17;;;;;;;;;;5094414;28;20474;-81
2022/09/25 12:10:23;;;;;;;18.03;5.97;;;;;;;;;;5095720;28;20422;-80
2022/09/25 12:12:58;;;;;;;6.47;5.97;;;;;;;;;;5095794;28;20435;-80
2022/09/25 12:15:30;;;;;;;7.80;5.20;;;;;;;;;;5094357;28;20444;-80
2022/09/25 12:17:59;;;;;;;5.53;5.13;;;;;;;;;;5095515;28;20498;-80
2022/09/25 12:20:40;;;;;;;5.80;5.30;;;;;;;;;;5095575;28;20398;-79
2022/09/25 12:23:15;;;;;;;5.90;5.60;;;;;;;;;;5094321;28;20423;-81
2022/09/25 12:25:48;;;;;;;5.33;4.93;;;;;;;;;;5095387;28;20414;-81
2022/09/25 12:28:26;;;;;;;5.47;4.97;;;;;;;;;;5095349;28;20763;-84
2022/09/25 12:31:07;;;;;;;5.83;5.33;;;;;;;;;;5095473;28;20503;-80
2022/09/25 12:33:38;;;;;;;6.57;5.83;;;;;;;;;;5095326;28;20936;-81
2022/09/25 12:36:11;;;;;;;5.90;5.20;;;;;;;;;;5095279;28;20813;-79
2022/09/25 12:38:43;;;;;;;7.00;6.17;;;;;;;;;;5095159;28;20476;-81
2022/09/25 12:41:18;;;;;;;5.53;5.13;;;;;;;;;;5095174;28;20475;-80
2022/09/25 12:43:47;;;;;;;6.07;5.30;;;;;;;;;;5094711;28;20415;-80
2022/09/25 12:46:15;;;;;;;6.27;5.23;;;;;;;;;;5095133;28;20414;-79
2022/09/25 12:48:45;;;;;;;5.37;5.17;;;;;;;;;;5095133;28;20765;-86
2022/09/25 12:51:33;;;;;;;5.70;5.20;;;;;;;;;;5093778;28;20924;-77
2022/09/25 12:54:02;;;;;;;25.50;13.77;;;;;;;;;;5095151;28;20404;-77
2022/09/25 12:56:36;;;;;;;19.03;17.03;;;;;;;;;;5094768;28;20432;-76
2022/09/25 12:59:05;;;;;;;16.30;14.70;;;;;;;;;;5095079;28;20485;-77
2022/09/25 13:01:34;;;;;;;6.80;6.20;;;;;;;;;;5095066;28;20403;-77
2022/09/25 13:04:09;;;;;;;6.80;6.23;;;;;;;;;;5094700;28;20780;-77
2022/09/25 13:06:46;;;;;;;6.80;5.53;;;;;;;;;;5094678;28;20401;-76
2022/09/25 13:09:31;;;;;;;7.10;6.03;;;;;;;;;;5094467;28;20500;-77
2022/09/25 13:11:57;;;;;;;6.10;5.80;;;;;;;;;;5094539;28;20492;-76
2022/09/25 13:14:38;;;;;;;9.70;8.73;;;;;;;;;;5094632;28;20504;-77
2022/09/25 13:17:04;;;;;;;6.93;6.33;;;;;;;;;;5094433;28;20551;-77
2022/09/25 13:19:33;;;;;;;8.53;6.50;;;;;;;;;;5093159;28;20527;-77
2022/09/25 13:22:07;;;;;;;6.63;5.83;;;;;;;;;;5094499;28;20489;-77
2022/09/25 13:24:49;;;;;;;7.97;7.27;;;;;;;;;;5094407;28;20409;-77
2022/09/25 13:27:17;;;;;;;6.63;6.03;;;;;;;;;;5094642;28;20750;-77
2022/09/25 13:29:51;;;;;;;6.87;6.27;;;;;;;;;;5094149;28;20407;-76
2022/09/25 13:32:18;;;;;;;7.00;6.27;;;;;;;;;;5094102;28;20895;-72
2022/09/25 13:34:45;;;;;;;7.13;6.33;;;;;;;;;;5094089;28;21024;-83
2022/09/25 13:37:15;;;;;;;7.50;6.90;;;;;;;;;;5082154;28;20470;-80
2022/09/25 13:42:28;;;;;;;7.83;7.23;;;;;;;;;;5089098;28;20435;-76
2022/09/25 13:45:05;;;;;;;10.17;8.13;;;;;;;;;;5089827;28;20433;-77
2022/09/25 13:47:31;;;;;;;11.03;9.80;;;;;;;;;;5091173;28;20426;-77
2022/09/25 13:49:59;;;;;;;8.50;7.80;;;;;;;;;;5091161;28;20431;-75
2022/09/25 13:52:29;;;;;;;12.23;10.70;;;;;;;;;;5092498;28;20428;-77
2022/09/25 13:55:22;;;;;;;12.47;9.60;;;;;;;;;;5088643;28;20976;-75
2022/09/25 13:57:54;;;;;;;12.97;8.90;;;;;;;;;;5091045;28;20468;-74
2022/09/25 14:00:20;;;;;;;9.40;7.83;;;;;;;;;;5089993;28;20773;-74
2022/09/25 14:02:47;;;;;;;8.10;7.43;;;;;;;;;;5088940;28;20424;-76
2022/09/25 14:05:15;;;;;;;10.30;7.10;;;;;;;;;;5083588;28;20425;-74
2022/09/25 14:07:41;;;;;;;6.77;6.30;;;;;;;;;;5086950;28;20460;-76
2022/09/25 14:10:09;;;;;;;6.37;6.07;;;;;;;;;;5091075;28;20412;-77
2022/09/25 14:12:42;;;;;;;7.10;6.67;;;;;;;;;;5090873;28;20425;-77
2022/09/25 14:15:13;;;;;;;6.97;6.47;;;;;;;;;;5089896;28;20431;-77
2022/09/25 14:17:41;;;;;;;7.87;7.27;;;;;;;;;;5089838;28;20514;-76
2022/09/25 14:20:20;;;;;;;12.10;6.77;;;;;;;;;;5091225;28;20405;-75
2022/09/25 14:22:52;;;;;;;6.83;6.40;;;;;;;;;;5087429;28;20437;-76
2022/09/25 14:25:39;;;;;;;6.70;6.17;;;;;;;;;;5090679;28;20423;-77
2022/09/25 14:28:34;;;;;;;9.10;5.60;;;;;;;;;;5087164;28;20510;-76
2022/09/25 14:31:15;;;;;;;6.50;6.00;;;;;;;;;;5075517;28;20436;-73
2022/09/25 14:34:11;;;;;;;8.03;7.33;;;;;;;;;;5088812;28;20449;-76
2022/09/25 14:36:44;;;;;;;10.37;9.40;;;;;;;;;;5035788;28;20466;-73
2022/09/25 14:39:10;;;;;;;10.33;9.30;;;;;;;;;;5090850;28;20430;-76
2022/09/25 14:41:45;;;;;;;10.70;7.77;;;;;;;;;;5089456;28;20417;-73
2022/09/25 14:44:30;;;;;;;7.87;7.30;;;;;;;;;;5089498;28;20413;-74
2022/09/25 14:46:57;;;;;;;7.90;7.30;;;;;;;;;;5090786;28;20416;-78
2022/09/25 14:49:23;;;;;;;6.30;5.90;;;;;;;;;;5088480;28;20443;-74
2022/09/25 14:51:50;;;;;;;6.10;5.90;;;;;;;;;;5090451;28;20452;-74
2022/09/25 14:54:23;;;;;;;7.13;6.60;;;;;;;;;;5090460;28;20417;-74
2022/09/25 14:56:53;;;;;;;6.30;5.70;;;;;;;;;;5090384;28;20472;-74
2022/09/25 14:59:23;;;;;;;6.20;5.90;;;;;;;;;;5090455;28;20519;-74
2022/09/25 15:01:49;;;;;;;5.53;5.33;;;;;;;;;;5090330;28;20412;-74
2022/09/25 15:04:26;;;;;;;6.87;6.27;;;;;;;;;;5086429;28;20518;-74